createdAt,value
2023-01-01T00:00:07.507Z,60.46
2023-01-01T00:02:37.339Z,59.89
2023-01-01T00:05:06.204Z,60.24
2023-01-01T00:07:34.248Z,60.07
2023-01-01T00:10:19.518Z,60.06
2023-01-01T00:12:47.361Z,59.42
2023-01-01T00:15:15.086Z,59.48
2023-01-01T00:17:44.368Z,59.56
2023-01-01T00:20:12.521Z,59.52
2023-01-01T00:22:56.592Z,59.82
2023-01-01T00:25:25.721Z,59.74
2023-01-01T00:27:53.635Z,59.76
2023-01-01T00:30:21.519Z,59.42
2023-01-01T00:32:55.724Z,59.52
2023-01-01T00:35:24.535Z,59.66
2023-01-01T00:37:52.427Z,59.59
2023-01-01T00:40:20.437Z,59.95
2023-01-01T00:42:48.335Z,59.33
2023-01-01T00:45:21.510Z,59.48
2023-01-01T00:47:52.934Z,59.54
2023-01-01T00:50:24.023Z,58.56
2023-01-01T00:52:53.673Z,59.46
2023-01-01T00:55:21.493Z,59.29
2023-01-01T00:57:49.517Z,59.20
2023-01-01T01:00:18.575Z,58.82
2023-01-01T01:02:46.580Z,58.83
2023-01-01T01:05:16.495Z,59.08
2023-01-01T01:07:44.811Z,59.39
2023-01-01T01:10:13.188Z,58.87
2023-01-01T01:12:41.170Z,58.94
2023-01-01T01:15:11.511Z,58.93
2023-01-01T01:17:39.412Z,58.94
2023-01-01T01:20:09.351Z,59.34
2023-01-01T01:22:38.725Z,59.11
2023-01-01T01:25:08.051Z,58.85
2023-01-01T01:27:35.905Z,59.25
2023-01-01T01:30:03.693Z,59.02
2023-01-01T01:32:31.436Z,59.02
2023-01-01T01:34:59.409Z,58.41
2023-01-01T01:37:27.163Z,58.73
2023-01-01T01:39:56.355Z,58.69
2023-01-01T01:42:24.230Z,58.27
2023-01-01T01:44:56.267Z,58.21
2023-01-01T01:47:29.041Z,58.26
2023-01-01T01:50:01.282Z,58.31
2023-01-01T01:52:30.951Z,58.56
2023-01-01T01:55:02.163Z,58.48
2023-01-01T01:57:30.965Z,58.03
2023-01-01T02:00:02.471Z,58.40
2023-01-01T02:02:38.402Z,57.94
2023-01-01T02:05:07.427Z,58.05
2023-01-01T02:07:36.830Z,57.74
2023-01-01T02:10:07.297Z,57.83
2023-01-01T02:12:35.264Z,57.87
2023-01-01T02:15:03.163Z,58.13
2023-01-01T02:17:38.943Z,57.88
2023-01-01T02:20:26.639Z,57.49
2023-01-01T02:23:11.675Z,57.60
2023-01-01T02:25:53.799Z,57.82
2023-01-01T02:28:34.786Z,57.66
2023-01-01T02:31:03.346Z,57.89
2023-01-01T02:33:32.096Z,57.89
2023-01-01T02:36:02.961Z,58.20
2023-01-01T02:38:34.180Z,57.99
2023-01-01T02:41:03.913Z,58.35
2023-01-01T02:43:33.017Z,58.02
2023-01-01T02:46:00.845Z,57.93
2023-01-01T02:48:40.787Z,58.35
2023-01-01T02:51:20.409Z,58.54
2023-01-01T02:53:56.802Z,58.27
2023-01-01T02:56:34.638Z,58.37
2023-01-01T02:59:36.052Z,57.94
2023-01-01T03:02:14.047Z,58.83
2023-01-01T03:04:54.597Z,59.77
2023-01-01T03:07:30.307Z,60.20
2023-01-01T03:10:04.492Z,60.67
2023-01-01T03:12:40.638Z,61.49
2023-01-01T03:15:16.190Z,62.04
2023-01-01T03:17:51.544Z,63.17
2023-01-01T03:20:25.458Z,63.64
2023-01-01T03:22:56.750Z,64.33
2023-01-01T03:25:29.245Z,64.55
2023-01-01T03:28:03.782Z,64.63
2023-01-01T03:30:37.023Z,64.97
2023-01-01T03:33:07.953Z,65.00
2023-01-01T03:35:41.099Z,64.96
2023-01-01T03:38:16.645Z,64.97
2023-01-01T03:40:47.010Z,65.03
2023-01-01T03:43:21.709Z,65.20
2023-01-01T03:45:52.445Z,65.36
2023-01-01T03:48:20.550Z,65.20
2023-01-01T03:50:59.995Z,64.99
2023-01-01T03:53:38.391Z,64.93
2023-01-01T03:56:14.702Z,64.82
2023-01-01T03:58:47.639Z,65.05
2023-01-01T04:01:22.292Z,64.82
2023-01-01T04:03:51.611Z,65.19
2023-01-01T04:06:19.597Z,64.80
2023-01-01T04:08:48.685Z,65.15
2023-01-01T04:11:48.785Z,64.97
2023-01-01T04:14:28.280Z,64.66
2023-01-01T04:16:57.834Z,65.09
2023-01-01T04:19:25.681Z,64.52
2023-01-01T04:21:53.502Z,64.80
2023-01-01T04:24:21.525Z,65.03
2023-01-01T04:26:49.683Z,65.21
2023-01-01T04:29:17.939Z,65.05
2023-01-01T04:31:45.682Z,65.03
2023-01-01T04:34:14.873Z,65.46
2023-01-01T04:36:43.261Z,65.67
2023-01-01T04:39:11.177Z,65.25
2023-01-01T04:41:38.997Z,65.26
2023-01-01T04:44:06.922Z,64.94
2023-01-01T04:46:34.659Z,65.44
2023-01-01T04:49:02.418Z,64.89
2023-01-01T04:51:31.614Z,64.60
2023-01-01T04:54:00.382Z,64.65
2023-01-01T04:56:28.157Z,64.12
2023-01-01T04:58:57.341Z,64.26
2023-01-01T05:01:27.608Z,63.58
2023-01-01T05:03:56.771Z,63.76
2023-01-01T05:06:25.516Z,63.59
2023-01-01T05:08:55.703Z,63.68
2023-01-01T05:11:25.599Z,62.93
2023-01-01T05:13:55.159Z,62.67
2023-01-01T05:16:25.436Z,62.24
2023-01-01T05:18:53.722Z,61.96
2023-01-01T05:21:23.220Z,61.70
2023-01-01T05:23:56.953Z,61.43
2023-01-01T05:26:28.196Z,60.96
2023-01-01T05:28:57.226Z,60.97
2023-01-01T05:31:27.037Z,60.38
2023-01-01T05:33:55.755Z,60.51
2023-01-01T05:36:25.750Z,60.15
2023-01-01T05:38:54.164Z,59.84
2023-01-01T05:41:24.425Z,60.22
2023-01-01T05:43:53.014Z,59.40
2023-01-01T05:46:22.935Z,59.55
2023-01-01T05:48:51.468Z,59.45
2023-01-01T05:51:22.325Z,58.99
2023-01-01T05:53:50.336Z,58.82
2023-01-01T05:56:19.051Z,58.60
2023-01-01T05:58:48.321Z,57.85
2023-01-01T06:01:18.463Z,57.63
2023-01-01T06:03:48.875Z,57.61
2023-01-01T06:06:19.079Z,57.86
2023-01-01T06:08:50.943Z,56.80
2023-01-01T06:11:19.174Z,57.34
2023-01-01T06:13:48.767Z,56.99
2023-01-01T06:16:16.674Z,57.17
2023-01-01T06:18:44.461Z,57.19
2023-01-01T06:21:14.510Z,56.62
2023-01-01T06:23:43.287Z,56.38
2023-01-01T06:26:13.231Z,56.24
2023-01-01T06:28:41.495Z,56.13
2023-01-01T06:31:13.184Z,56.18
2023-01-01T06:33:41.924Z,56.07
2023-01-01T06:36:12.068Z,56.07
2023-01-01T06:38:41.871Z,55.88
2023-01-01T06:41:12.820Z,55.92
2023-01-01T06:43:40.670Z,56.46
2023-01-01T06:46:15.225Z,56.11
2023-01-01T06:48:43.251Z,55.83
2023-01-01T06:51:12.802Z,55.77
2023-01-01T06:53:40.775Z,55.81
2023-01-01T06:56:09.255Z,55.77
2023-01-01T06:58:37.175Z,55.55
2023-01-01T07:01:08.923Z,55.87
2023-01-01T07:03:38.945Z,55.80
2023-01-01T07:06:07.769Z,56.10
2023-01-01T07:08:35.831Z,55.96
2023-01-01T07:11:03.624Z,56.07
2023-01-01T07:13:32.329Z,56.47
2023-01-01T07:16:00.409Z,56.03
2023-01-01T07:18:28.324Z,56.43
2023-01-01T07:20:59.610Z,56.04
2023-01-01T07:23:28.961Z,56.11
2023-01-01T07:25:57.198Z,56.10
2023-01-01T07:28:26.301Z,56.31
2023-01-01T07:30:54.902Z,56.48
2023-01-01T07:33:24.959Z,56.79
2023-01-01T07:35:52.721Z,56.45
2023-01-01T07:38:21.894Z,56.47
2023-01-01T07:40:49.646Z,55.87
2023-01-01T07:43:17.465Z,56.52
2023-01-01T07:45:45.228Z,56.07
2023-01-01T07:48:15.849Z,55.83
2023-01-01T07:50:44.232Z,56.03
2023-01-01T07:53:12.011Z,55.64
2023-01-01T07:55:41.155Z,55.84
2023-01-01T07:58:08.967Z,55.72
2023-01-01T08:00:36.717Z,55.25
2023-01-01T08:03:04.593Z,54.83
2023-01-01T08:05:34.124Z,55.11
2023-01-01T08:08:01.932Z,54.92
2023-01-01T08:10:29.766Z,54.66
2023-01-01T08:13:02.152Z,55.00
2023-01-01T08:15:30.144Z,55.04
2023-01-01T08:17:58.683Z,54.92
2023-01-01T08:20:26.539Z,55.51
2023-01-01T08:22:54.267Z,55.25
2023-01-01T08:25:22.485Z,55.47
2023-01-01T08:27:50.293Z,55.53
2023-01-01T08:30:19.475Z,55.49
2023-01-01T08:32:47.167Z,54.95
2023-01-01T08:35:15.024Z,55.34
2023-01-01T08:37:42.821Z,55.22
2023-01-01T08:40:12.869Z,55.12
2023-01-01T08:42:40.854Z,54.81
2023-01-01T08:45:09.843Z,54.32
2023-01-01T08:47:38.945Z,54.56
2023-01-01T08:50:07.812Z,54.11
2023-01-01T08:52:35.573Z,54.41
2023-01-01T08:55:03.415Z,53.93
2023-01-01T08:57:31.937Z,54.13
2023-01-01T08:59:59.678Z,53.61
2023-01-01T09:02:28.695Z,54.14
2023-01-01T09:04:57.886Z,53.46
2023-01-01T09:07:25.626Z,53.46
2023-01-01T09:09:53.348Z,53.46
2023-01-01T09:12:21.142Z,53.59
2023-01-01T09:14:49.105Z,53.19
2023-01-01T09:17:16.992Z,53.35
2023-01-01T09:19:44.906Z,53.06
2023-01-01T09:22:14.247Z,53.16
2023-01-01T09:24:42.132Z,53.12
2023-01-01T09:27:09.940Z,52.89
2023-01-01T09:29:37.698Z,52.76
2023-01-01T09:32:05.916Z,52.86
2023-01-01T09:34:33.749Z,53.32
2023-01-01T09:37:01.483Z,53.64
2023-01-01T09:39:30.794Z,53.82
2023-01-01T09:42:11.367Z,52.88
2023-01-01T09:44:57.497Z,53.26
2023-01-01T09:47:29.446Z,53.12
2023-01-01T09:50:02.888Z,52.58
2023-01-01T09:52:41.114Z,52.16
2023-01-01T09:55:19.657Z,51.83
2023-01-01T09:57:47.458Z,51.92
2023-01-01T10:00:17.784Z,51.84
2023-01-01T10:02:59.086Z,50.83
2023-01-01T10:05:34.806Z,51.08
2023-01-01T10:08:11.372Z,51.29
2023-01-01T10:10:42.463Z,51.54
2023-01-01T10:13:21.633Z,51.13
2023-01-01T10:15:57.843Z,51.70
2023-01-01T10:18:30.014Z,51.99
2023-01-01T10:21:06.104Z,51.70
2023-01-01T10:23:41.912Z,52.25
2023-01-01T10:26:16.248Z,52.60
2023-01-01T10:28:54.914Z,52.73
2023-01-01T10:31:30.571Z,53.14
2023-01-01T10:33:58.668Z,53.87
2023-01-01T10:36:27.492Z,53.77
2023-01-01T10:38:55.268Z,53.25
2023-01-01T10:41:24.468Z,52.60
2023-01-01T10:43:52.504Z,51.45
2023-01-01T10:46:29.596Z,51.68
2023-01-01T10:49:10.450Z,51.34
2023-01-01T10:51:42.991Z,51.28
2023-01-01T10:54:31.753Z,51.07
2023-01-01T10:57:02.055Z,50.77
2023-01-01T10:59:40.201Z,50.20
2023-01-01T11:02:20.953Z,49.50
2023-01-01T11:04:50.036Z,50.13
2023-01-01T11:07:25.648Z,49.81
2023-01-01T11:10:04.065Z,50.20
2023-01-01T11:15:38.799Z,50.10
2023-01-01T11:18:12.407Z,50.23
2023-01-01T11:20:41.122Z,50.05
2023-01-01T11:23:21.410Z,50.22
2023-01-01T11:26:03.741Z,50.05
2023-01-01T11:28:35.061Z,49.80
2023-01-01T11:31:14.917Z,49.90
2023-01-01T11:33:47.704Z,48.86
2023-01-01T11:36:22.803Z,49.12
2023-01-01T11:38:53.275Z,49.88
2023-01-01T11:41:21.050Z,49.26
2023-01-01T11:43:50.196Z,48.82
2023-01-01T11:46:25.634Z,49.45
2023-01-01T11:48:55.220Z,49.81
2023-01-01T11:51:35.134Z,49.35
2023-01-01T11:54:24.086Z,48.85
2023-01-01T11:56:55.338Z,49.28
2023-01-01T11:59:29.883Z,48.85
2023-01-01T12:02:03.176Z,48.98
2023-01-01T12:04:37.802Z,49.22
2023-01-01T12:07:08.089Z,49.11
2023-01-01T12:09:42.239Z,48.76
2023-01-01T12:12:17.986Z,48.72
2023-01-01T12:14:54.058Z,48.77
2023-01-01T12:17:27.657Z,49.20
2023-01-01T12:20:03.435Z,49.28
2023-01-01T12:22:31.891Z,49.76
2023-01-01T12:25:00.205Z,49.32
2023-01-01T12:28:01.404Z,49.10
2023-01-01T12:30:37.927Z,49.62
2023-01-01T12:33:28.898Z,49.78
2023-01-01T12:36:20.495Z,50.02
2023-01-01T12:39:25.587Z,50.31
2023-01-01T12:42:00.134Z,50.44
2023-01-01T12:44:41.413Z,50.55
2023-01-01T12:47:22.224Z,51.02
2023-01-01T12:50:07.789Z,51.20
2023-01-01T12:52:46.309Z,51.30
2023-01-01T12:55:53.126Z,51.59
2023-01-01T12:58:27.099Z,51.18
2023-01-01T13:01:00.448Z,51.79
2023-01-01T13:03:34.192Z,52.49
2023-01-01T13:06:03.505Z,52.29
2023-01-01T13:08:31.978Z,52.56
2023-01-01T13:11:02.575Z,52.87
2023-01-01T13:13:30.484Z,52.55
2023-01-01T13:15:59.055Z,53.13
2023-01-01T13:18:34.661Z,53.08
2023-01-01T13:21:06.380Z,53.48
2023-01-01T13:23:49.300Z,53.99
2023-01-01T13:26:37.903Z,54.62
2023-01-01T13:29:34.210Z,54.59
2023-01-01T13:32:05.247Z,54.69
2023-01-01T13:34:37.571Z,54.54
2023-01-01T13:37:33.040Z,54.73
2023-01-01T13:40:02.171Z,55.17
2023-01-01T13:42:40.941Z,54.86
2023-01-01T13:45:36.969Z,55.20
2023-01-01T13:48:20.266Z,54.87
2023-01-01T13:51:00.950Z,55.02
2023-01-01T13:53:57.763Z,55.16
2023-01-01T13:56:38.242Z,55.28
2023-01-01T13:59:31.978Z,55.18
2023-01-01T14:02:15.846Z,55.68
2023-01-01T14:04:47.839Z,55.69
2023-01-01T14:10:27.760Z,55.88
2023-01-01T14:13:16.076Z,55.64
2023-01-01T14:15:53.954Z,56.13
2023-01-01T14:18:26.761Z,56.48
2023-01-01T14:20:55.237Z,56.24
2023-01-01T14:23:32.978Z,56.57
2023-01-01T14:26:03.513Z,56.44
2023-01-01T14:28:33.517Z,56.53
2023-01-01T14:31:11.187Z,56.94
2023-01-01T14:33:39.899Z,56.88
2023-01-01T14:36:17.564Z,56.66
2023-01-01T14:38:49.082Z,56.32
2023-01-01T14:41:21.531Z,57.29
2023-01-01T14:43:52.213Z,57.23
2023-01-01T14:46:23.271Z,57.08
2023-01-01T14:48:54.409Z,57.59
2023-01-01T14:51:24.827Z,57.79
2023-01-01T14:53:56.654Z,57.92
2023-01-01T14:56:29.368Z,57.80
2023-01-01T14:59:06.401Z,57.60
2023-01-01T15:01:34.375Z,57.97
2023-01-01T15:04:03.752Z,57.72
2023-01-01T15:06:32.842Z,58.29
2023-01-01T15:09:02.129Z,58.59
2023-01-01T15:11:29.947Z,58.68
2023-01-01T15:14:01.288Z,58.99
2023-01-01T15:16:36.306Z,59.76
2023-01-01T15:19:19.532Z,59.61
2023-01-01T15:21:47.807Z,59.47
2023-01-01T15:24:22.339Z,59.89
2023-01-01T15:26:53.744Z,60.15
2023-01-01T15:29:28.491Z,60.41
2023-01-01T15:31:59.433Z,60.08
2023-01-01T15:34:30.464Z,60.41
2023-01-01T15:37:07.401Z,60.44
2023-01-01T15:39:46.773Z,60.77
2023-01-01T15:42:39.808Z,61.48
2023-01-01T15:45:21.522Z,61.01
2023-01-01T15:47:49.852Z,60.67
2023-01-01T15:50:23.317Z,60.67
2023-01-01T15:52:55.895Z,60.81
2023-01-01T15:55:29.057Z,60.90
2023-01-01T15:57:57.581Z,60.80
2023-01-01T16:00:28.367Z,61.34
2023-01-01T16:03:01.605Z,61.67
2023-01-01T16:05:29.816Z,61.77
2023-01-01T16:08:02.346Z,61.47
2023-01-01T16:10:34.296Z,62.15
2023-01-01T16:13:02.392Z,62.54
2023-01-01T16:15:30.208Z,62.56
2023-01-01T16:17:58.155Z,62.97
2023-01-01T16:20:26.345Z,62.89
2023-01-01T16:22:54.117Z,63.16
2023-01-01T16:25:26.143Z,63.39
2023-01-01T16:27:55.921Z,64.01
2023-01-01T16:30:27.101Z,64.34
2023-01-01T16:32:55.055Z,63.72
2023-01-01T16:35:22.879Z,64.13
2023-01-01T16:37:50.774Z,64.43
2023-01-01T16:40:18.547Z,64.72
2023-01-01T16:42:46.515Z,65.25
2023-01-01T16:45:19.595Z,65.39
2023-01-01T16:47:49.871Z,65.76
2023-01-01T16:50:17.739Z,65.26
2023-01-01T16:52:46.304Z,65.91
2023-01-01T16:55:14.862Z,66.39
2023-01-01T16:57:43.523Z,66.33
2023-01-01T17:00:12.678Z,67.17
2023-01-01T17:02:44.237Z,67.28
2023-01-01T17:05:13.091Z,67.58
2023-01-01T17:07:40.861Z,68.95
2023-01-01T17:10:09.370Z,68.88
2023-01-01T17:12:37.286Z,69.03
2023-01-01T17:15:05.857Z,69.79
2023-01-01T17:17:33.674Z,69.89
2023-01-01T17:20:02.991Z,70.05
2023-01-01T17:22:34.227Z,70.48
2023-01-01T17:25:02.666Z,70.74
2023-01-01T17:27:32.836Z,71.44
2023-01-01T17:30:00.788Z,71.50
2023-01-01T17:32:28.857Z,72.03
2023-01-01T17:34:56.811Z,71.52
2023-01-01T17:37:26.009Z,72.32
2023-01-01T17:39:54.034Z,72.07
2023-01-01T17:42:22.281Z,72.54
2023-01-01T17:44:50.460Z,72.94
2023-01-01T17:47:18.346Z,72.95
2023-01-01T17:49:46.370Z,72.87
2023-01-01T17:52:16.994Z,72.43
2023-01-01T17:54:46.524Z,73.63
2023-01-01T17:57:14.929Z,73.76
2023-01-01T17:59:42.744Z,73.52
2023-01-01T18:02:14.005Z,73.85
2023-01-01T18:04:42.120Z,74.72
2023-01-01T18:07:09.909Z,74.36
2023-01-01T18:09:38.449Z,74.64
2023-01-01T18:12:08.243Z,75.01
2023-01-01T18:14:36.448Z,74.55
2023-01-01T18:17:04.376Z,76.06
2023-01-01T18:19:32.481Z,75.18
2023-01-01T18:22:00.491Z,75.54
2023-01-01T18:24:28.575Z,76.00
2023-01-01T18:26:57.928Z,75.59
2023-01-01T18:29:27.044Z,76.03
2023-01-01T18:31:54.893Z,76.57
2023-01-01T18:34:23.002Z,75.55
2023-01-01T18:36:50.731Z,76.57
2023-01-01T18:39:23.086Z,76.20
2023-01-01T18:42:15.045Z,76.40
2023-01-01T18:44:44.271Z,76.99
2023-01-01T18:47:17.412Z,76.82
2023-01-01T18:49:53.316Z,76.92
2023-01-01T18:52:26.162Z,77.20
2023-01-01T18:55:13.162Z,77.21
2023-01-01T18:57:41.598Z,77.64
2023-01-01T19:00:19.944Z,77.71
2023-01-01T19:02:55.648Z,77.56
2023-01-01T19:05:27.361Z,77.89
2023-01-01T19:08:03.014Z,78.46
2023-01-01T19:10:36.450Z,78.12
2023-01-01T19:13:16.080Z,77.85
2023-01-01T19:15:48.178Z,77.95
2023-01-01T19:18:18.448Z,77.95
2023-01-01T19:20:46.759Z,77.67
2023-01-01T19:23:19.811Z,78.00
2023-01-01T19:25:48.807Z,77.58
2023-01-01T19:28:38.781Z,78.34
2023-01-01T19:31:10.629Z,78.46
2023-01-01T19:33:40.857Z,79.14
2023-01-01T19:36:13.250Z,79.18
2023-01-01T19:38:41.136Z,79.06
2023-01-01T19:41:09.439Z,79.38
2023-01-01T19:43:38.424Z,79.19
2023-01-01T19:46:07.672Z,79.48
2023-01-01T19:48:35.404Z,79.61
2023-01-01T19:51:03.227Z,79.72
2023-01-01T19:53:31.028Z,79.58
2023-01-01T19:55:59.048Z,79.01
2023-01-01T19:58:26.815Z,78.51
2023-01-01T20:00:54.675Z,78.61
2023-01-01T20:06:12.465Z,78.99
2023-01-01T20:08:40.192Z,78.94
2023-01-01T20:11:08.388Z,78.60
2023-01-01T20:13:36.407Z,78.79
2023-01-01T20:16:05.268Z,79.03
2023-01-01T20:18:34.482Z,79.31
2023-01-01T20:21:25.541Z,79.53
2023-01-01T20:23:54.323Z,80.37
2023-01-01T20:26:23.712Z,80.53
2023-01-01T20:29:09.533Z,80.52
2023-01-01T20:31:37.434Z,81.16
2023-01-01T20:34:06.657Z,81.79
2023-01-01T20:36:52.270Z,81.95
2023-01-01T20:39:21.402Z,83.33
2023-01-01T20:41:49.194Z,83.22
2023-01-01T20:44:17.074Z,83.26
2023-01-01T20:46:45.957Z,83.42
2023-01-01T20:49:17.142Z,83.39
2023-01-01T20:51:44.998Z,83.99
2023-01-01T20:54:13.097Z,83.88
2023-01-01T20:56:40.919Z,83.89
2023-01-01T20:59:33.548Z,83.98
2023-01-01T21:01:58.616Z,84.29
2023-01-01T21:04:27.814Z,84.36
2023-01-01T21:06:55.665Z,84.32
2023-01-01T21:09:23.570Z,84.35
2023-01-01T21:11:51.393Z,84.38
2023-01-01T21:14:20.877Z,84.24
2023-01-01T21:16:48.776Z,83.76
2023-01-01T21:19:20.097Z,83.96
2023-01-01T21:21:54.220Z,84.27
2023-01-01T21:24:23.823Z,83.91
2023-01-01T21:26:54.481Z,85.00
2023-01-01T21:29:25.179Z,84.20
2023-01-01T21:31:58.597Z,83.48
2023-01-01T21:34:39.720Z,82.79
2023-01-01T21:37:14.727Z,82.52
2023-01-01T21:39:43.273Z,82.43
2023-01-01T21:42:23.440Z,81.92
2023-01-01T21:44:56.638Z,82.13
2023-01-01T21:47:26.137Z,81.84
2023-01-01T21:49:56.911Z,81.74
2023-01-01T21:52:27.527Z,81.84
2023-01-01T21:54:57.802Z,81.71
2023-01-01T21:57:26.124Z,81.90
2023-01-01T21:59:55.266Z,81.93
2023-01-01T22:02:36.295Z,81.84
2023-01-01T22:05:29.489Z,81.43
2023-01-01T22:08:00.280Z,81.61
2023-01-01T22:10:33.221Z,81.43
2023-01-01T22:13:02.497Z,81.42
2023-01-01T22:15:40.196Z,81.77
2023-01-01T22:18:23.015Z,80.83
2023-01-01T22:20:51.804Z,81.54
2023-01-01T22:23:35.918Z,81.67
2023-01-01T22:26:05.938Z,81.46
2023-01-01T22:28:41.838Z,81.35
2023-01-01T22:31:11.840Z,81.11
2023-01-01T22:33:43.767Z,81.15
2023-01-01T22:36:15.666Z,81.25
2023-01-01T22:38:44.965Z,80.63
2023-01-01T22:41:14.550Z,80.42
2023-01-01T22:43:44.452Z,80.20
2023-01-01T22:46:17.035Z,79.59
2023-01-01T22:48:45.141Z,80.06
2023-01-01T22:51:18.372Z,79.45
2023-01-01T22:53:47.521Z,79.60
2023-01-01T22:56:15.420Z,79.13
2023-01-01T22:58:43.268Z,79.44
2023-01-01T23:01:11.087Z,79.18
2023-01-01T23:03:38.963Z,78.92
2023-01-01T23:06:07.739Z,79.24
2023-01-01T23:08:35.627Z,78.78
2023-01-01T23:11:04.902Z,78.22
2023-01-01T23:13:50.151Z,78.99
2023-01-01T23:16:17.963Z,79.72
2023-01-01T23:18:45.893Z,79.39
2023-01-01T23:21:22.729Z,79.38
2023-01-01T23:23:55.987Z,79.71
2023-01-01T23:26:25.957Z,79.16
2023-01-01T23:28:55.791Z,80.42
2023-01-01T23:31:27.051Z,79.73
2023-01-01T23:33:56.108Z,79.46
2023-01-01T23:36:24.196Z,80.15
2023-01-01T23:38:52.110Z,80.33
2023-01-01T23:41:19.913Z,80.78
2023-01-01T23:43:49.190Z,81.18
2023-01-01T23:46:18.008Z,80.85
2023-01-01T23:48:47.593Z,81.42
2023-01-01T23:51:17.489Z,81.07
2023-01-01T23:53:45.370Z,81.20
2023-01-01T23:56:13.526Z,81.53
2023-01-01T23:58:41.320Z,82.00
